KHVS/HVS METAR and TAF weather

Enter ICAO airport designator
Station Type Date Time Source
KHVS METAR 2021/03/05 18:35 UTC NOAA

KHVS 051835Z AUTO VRB05G10KT 10SM CLR 13/M12 A3008 RMK AO2


Station Type Date Time Source
KHVS Decoded METAR 2021/03/05 18:35 UTC NOAA

Station name not available
Mar 05, 2021 - 01:35 PM EST / 2021.03.05 1835 UTC
Wind: Variable at 6 MPH (5 KT) gusting to 12 MPH (10 KT):0
Visibility: 10 mile(s):0
Sky conditions: clear
Temperature: 55 F (13 C)
Dew Point: 10 F (-12 C)
Relative Humidity: 16%
Pressure (altimeter): 30.08 in. Hg (1018 hPa)
ob: KHVS 051835Z AUTO VRB05G10KT 10SM CLR 13/M12 A3008 RMK AO2
cycle: 18

Station Type Date Time Source
KHVS TAF UTC NOAA

Error!

Example: see airport list